首页
METAR-TAF:

METAR-TAF

机场 :

卡尔卡松, 法国

纬度: 43-13N, 经度: 002-19E, 海拔: 130米

当前天气观测

该预报发布于26分钟前的22:30 UTC
风速10节,风向
温度 24°C
湿度 65%
气压 1020 hPa
能见度10公里或以上
1500米以下无云,无积雨云

METAR: LFMK 262230Z AUTO 09010KT CAVOK 24/17 Q1020

时间: 00:56 (22:56 UTC)

预报

该预报发布于8小时和56分钟前的14:00 UTC
预报有效从26日的 15点(UTC)到 27日的 15点(UTC)
风速26节,风向
能见度10公里或以上
1500米以下无云,无积雨云
短暂存在
从 26日的 15点(UTC)到 26日的 19点(UTC)
风速20节,风向,有时为35节阵风
成为
从 26日的 19点(UTC)到 26日的 21点(UTC)
风速15节,风向

TAF: LFMK 261400Z 2615/2715 08026KT CAVOK TEMPO 2615/2619 09020G35KT BECMG 2619/2621 09015KT

超过4000个机场的气象观测和天气预报(METAR&TAF报告)。

可查询的气象台以黄色和红色小点在地图上表示。

将鼠标移到小点上方,可查看气象台名称。

然后点击查看天气观测和预报。

如需切换地图:点击带黑十字的绿色按钮放大地图;点击带横线的绿色按钮缩小地图;或者点击绿色箭头查看邻近地区的地图。


METAR-TAF: